sensor_id;sensor_type;location;lat;lon;timestamp;temperature;humidity
27940;DHT22;15275;51.716;14.324;2023-03-30T00:01:10;11.80;76.90
27940;DHT22;15275;51.716;14.324;2023-03-30T00:03:39;11.80;76.80
27940;DHT22;15275;51.716;14.324;2023-03-30T00:06:10;11.80;76.80
27940;DHT22;15275;51.716;14.324;2023-03-30T00:08:37;11.70;76.90
27940;DHT22;15275;51.716;14.324;2023-03-30T00:11:05;11.70;77.00
27940;DHT22;15275;51.716;14.324;2023-03-30T00:13:33;11.70;77.00
27940;DHT22;15275;51.716;14.324;2023-03-30T00:16:00;11.70;77.00
27940;DHT22;15275;51.716;14.324;2023-03-30T00:18:27;11.70;77.10
27940;DHT22;15275;51.716;14.324;2023-03-30T00:20:54;11.70;77.10
27940;DHT22;15275;51.716;14.324;2023-03-30T00:23:21;11.70;77.10
27940;DHT22;15275;51.716;14.324;2023-03-30T00:25:47;11.70;77.20
27940;DHT22;15275;51.716;14.324;2023-03-30T00:28:13;11.70;77.20
27940;DHT22;15275;51.716;14.324;2023-03-30T00:30:39;11.80;77.20
27940;DHT22;15275;51.716;14.324;2023-03-30T00:33:06;11.80;77.20
27940;DHT22;15275;51.716;14.324;2023-03-30T00:35:32;11.80;77.10
27940;DHT22;15275;51.716;14.324;2023-03-30T00:37:58;11.80;77.20
27940;DHT22;15275;51.716;14.324;2023-03-30T00:40:30;11.80;77.20
27940;DHT22;15275;51.716;14.324;2023-03-30T00:43:00;11.90;77.10
27940;DHT22;15275;51.716;14.324;2023-03-30T00:45:32;11.90;76.90
27940;DHT22;15275;51.716;14.324;2023-03-30T00:48:18;11.90;77.10
27940;DHT22;15275;51.716;14.324;2023-03-30T00:51:01;11.90;76.10
27940;DHT22;15275;51.716;14.324;2023-03-30T00:53:39;11.90;76.40
27940;DHT22;15275;51.716;14.324;2023-03-30T00:56:09;11.90;77.20
27940;DHT22;15275;51.716;14.324;2023-03-30T00:58:38;11.90;77.20
27940;DHT22;15275;51.716;14.324;2023-03-30T01:01:08;11.90;77.20
27940;DHT22;15275;51.716;14.324;2023-03-30T01:03:38;11.90;77.30
27940;DHT22;15275;51.716;14.324;2023-03-30T01:06:09;12.00;77.20
27940;DHT22;15275;51.716;14.324;2023-03-30T01:08:37;12.00;76.00
27940;DHT22;15275;51.716;14.324;2023-03-30T01:11:05;12.00;77.40
27940;DHT22;15275;51.716;14.324;2023-03-30T01:13:35;12.00;77.30
27940;DHT22;15275;51.716;14.324;2023-03-30T01:19:15;12.00;76.60
27940;DHT22;15275;51.716;14.324;2023-03-30T01:31:16;12.10;77.40
27940;DHT22;15275;51.716;14.324;2023-03-30T01:42:36;12.10;76.80
27940;DHT22;15275;51.716;14.324;2023-03-30T01:48:27;12.00;77.40
27940;DHT22;15275;51.716;14.324;2023-03-30T01:51:07;12.10;77.40
27940;DHT22;15275;51.716;14.324;2023-03-30T01:56:55;12.10;76.20
27940;DHT22;15275;51.716;14.324;2023-03-30T01:59:31;12.10;76.90
27940;DHT22;15275;51.716;14.324;2023-03-30T02:01:59;12.10;77.80
27940;DHT22;15275;51.716;14.324;2023-03-30T02:04:30;12.00;77.80
27940;DHT22;15275;51.716;14.324;2023-03-30T02:07:03;12.00;77.70
27940;DHT22;15275;51.716;14.324;2023-03-30T02:09:33;12.00;77.80
27940;DHT22;15275;51.716;14.324;2023-03-30T02:12:02;12.00;77.90
27940;DHT22;15275;51.716;14.324;2023-03-30T02:14:31;12.00;77.80
27940;DHT22;15275;51.716;14.324;2023-03-30T02:17:04;12.00;77.70
27940;DHT22;15275;51.716;14.324;2023-03-30T02:19:36;12.00;77.70
27940;DHT22;15275;51.716;14.324;2023-03-30T02:22:02;12.00;77.80
27940;DHT22;15275;51.716;14.324;2023-03-30T02:24:31;12.00;77.80
27940;DHT22;15275;51.716;14.324;2023-03-30T02:26:59;12.00;77.70
27940;DHT22;15275;51.716;14.324;2023-03-30T02:29:27;12.00;77.80
27940;DHT22;15275;51.716;14.324;2023-03-30T02:31:55;11.90;77.90
27940;DHT22;15275;51.716;14.324;2023-03-30T02:57:05;12.00;78.30
27940;DHT22;15275;51.716;14.324;2023-03-30T02:59:57;12.00;77.80
27940;DHT22;15275;51.716;14.324;2023-03-30T03:02:34;12.10;77.60
27940;DHT22;15275;51.716;14.324;2023-03-30T03:05:09;12.10;78.10
27940;DHT22;15275;51.716;14.324;2023-03-30T03:07:36;12.10;78.40
27940;DHT22;15275;51.716;14.324;2023-03-30T03:10:04;12.00;78.20
27940;DHT22;15275;51.716;14.324;2023-03-30T03:12:31;12.10;78.30
27940;DHT22;15275;51.716;14.324;2023-03-30T03:14:57;12.10;78.30
27940;DHT22;15275;51.716;14.324;2023-03-30T03:17:26;12.10;78.40
27940;DHT22;15275;51.716;14.324;2023-03-30T03:19:59;12.10;78.30
27940;DHT22;15275;51.716;14.324;2023-03-30T03:22:27;12.10;78.30
27940;DHT22;15275;51.716;14.324;2023-03-30T03:24:52;12.10;78.10
27940;DHT22;15275;51.716;14.324;2023-03-30T03:27:18;12.10;78.10
27940;DHT22;15275;51.716;14.324;2023-03-30T03:29:44;12.00;78.10
27940;DHT22;15275;51.716;14.324;2023-03-30T03:32:10;12.00;78.10
27940;DHT22;15275;51.716;14.324;2023-03-30T03:34:36;12.00;78.20
27940;DHT22;15275;51.716;14.324;2023-03-30T03:37:02;11.90;78.10
27940;DHT22;15275;51.716;14.324;2023-03-30T03:39:28;11.90;78.30
27940;DHT22;15275;51.716;14.324;2023-03-30T03:41:53;11.90;78.30
27940;DHT22;15275;51.716;14.324;2023-03-30T03:44:19;11.90;78.30
27940;DHT22;15275;51.716;14.324;2023-03-30T03:46:45;11.90;78.20
27940;DHT22;15275;51.716;14.324;2023-03-30T03:49:11;11.90;78.30
27940;DHT22;15275;51.716;14.324;2023-03-30T03:51:37;11.90;78.20
27940;DHT22;15275;51.716;14.324;2023-03-30T03:54:03;11.90;78.20
27940;DHT22;15275;51.716;14.324;2023-03-30T03:56:30;11.80;78.20
27940;DHT22;15275;51.716;14.324;2023-03-30T03:58:56;11.80;78.30
27940;DHT22;15275;51.716;14.324;2023-03-30T04:01:22;11.80;78.30
27940;DHT22;15275;51.716;14.324;2023-03-30T04:03:48;11.80;78.40
27940;DHT22;15275;51.716;14.324;2023-03-30T04:06:13;11.80;78.40
27940;DHT22;15275;51.716;14.324;2023-03-30T04:08:39;11.80;78.40
27940;DHT22;15275;51.716;14.324;2023-03-30T04:11:10;11.80;78.30
27940;DHT22;15275;51.716;14.324;2023-03-30T04:13:39;11.80;78.30
27940;DHT22;15275;51.716;14.324;2023-03-30T04:16:06;11.80;78.30
27940;DHT22;15275;51.716;14.324;2023-03-30T04:18:33;11.80;78.30
27940;DHT22;15275;51.716;14.324;2023-03-30T04:21:01;11.80;78.30
27940;DHT22;15275;51.716;14.324;2023-03-30T04:23:33;11.80;78.30
27940;DHT22;15275;51.716;14.324;2023-03-30T04:26:00;11.70;78.30
27940;DHT22;15275;51.716;14.324;2023-03-30T04:28:31;11.80;78.30
27940;DHT22;15275;51.716;14.324;2023-03-30T04:31:03;11.70;78.20
27940;DHT22;15275;51.716;14.324;2023-03-30T04:33:30;11.70;78.20
27940;DHT22;15275;51.716;14.324;2023-03-30T04:36:00;11.70;78.20
27940;DHT22;15275;51.716;14.324;2023-03-30T04:38:26;11.70;78.20
27940;DHT22;15275;51.716;14.324;2023-03-30T04:40:52;11.60;78.20
27940;DHT22;15275;51.716;14.324;2023-03-30T04:43:20;11.60;78.20
27940;DHT22;15275;51.716;14.324;2023-03-30T04:45:52;11.60;78.30
27940;DHT22;15275;51.716;14.324;2023-03-30T04:48:20;11.50;78.40
27940;DHT22;15275;51.716;14.324;2023-03-30T04:50:48;11.50;78.50
27940;DHT22;15275;51.716;14.324;2023-03-30T04:53:16;11.50;78.60
27940;DHT22;15275;51.716;14.324;2023-03-30T04:55:47;11.50;78.60
27940;DHT22;15275;51.716;14.324;2023-03-30T04:58:14;11.50;78.70
27940;DHT22;15275;51.716;14.324;2023-03-30T05:00:40;11.40;78.70
27940;DHT22;15275;51.716;14.324;2023-03-30T05:03:07;11.40;78.70
27940;DHT22;15275;51.716;14.324;2023-03-30T05:05:33;11.40;78.70
27940;DHT22;15275;51.716;14.324;2023-03-30T05:07:59;11.40;78.70
27940;DHT22;15275;51.716;14.324;2023-03-30T05:10:25;11.40;78.80
27940;DHT22;15275;51.716;14.324;2023-03-30T05:12:54;11.30;79.00
27940;DHT22;15275;51.716;14.324;2023-03-30T05:15:21;11.40;79.10
27940;DHT22;15275;51.716;14.324;2023-03-30T05:17:47;11.40;79.30
27940;DHT22;15275;51.716;14.324;2023-03-30T05:20:13;11.40;79.50
27940;DHT22;15275;51.716;14.324;2023-03-30T05:22:40;11.40;79.60
27940;DHT22;15275;51.716;14.324;2023-03-30T05:25:06;11.40;79.50
27940;DHT22;15275;51.716;14.324;2023-03-30T05:27:32;11.50;79.70
27940;DHT22;15275;51.716;14.324;2023-03-30T05:29:58;11.50;79.70
27940;DHT22;15275;51.716;14.324;2023-03-30T05:32:24;11.50;79.70
27940;DHT22;15275;51.716;14.324;2023-03-30T05:34:50;11.60;79.80
27940;DHT22;15275;51.716;14.324;2023-03-30T05:37:15;11.60;79.80
27940;DHT22;15275;51.716;14.324;2023-03-30T05:39:41;11.60;80.00
27940;DHT22;15275;51.716;14.324;2023-03-30T05:42:09;11.70;79.90
27940;DHT22;15275;51.716;14.324;2023-03-30T05:44:36;11.80;79.90
27940;DHT22;15275;51.716;14.324;2023-03-30T05:47:02;11.80;80.00
27940;DHT22;15275;51.716;14.324;2023-03-30T05:49:28;11.90;80.00
27940;DHT22;15275;51.716;14.324;2023-03-30T05:51:53;12.00;79.90
27940;DHT22;15275;51.716;14.324;2023-03-30T05:54:20;12.10;79.90
27940;DHT22;15275;51.716;14.324;2023-03-30T05:56:46;12.10;79.80
27940;DHT22;15275;51.716;14.324;2023-03-30T05:59:12;12.20;79.80
27940;DHT22;15275;51.716;14.324;2023-03-30T06:01:38;12.30;79.60
27940;DHT22;15275;51.716;14.324;2023-03-30T06:04:04;12.30;79.60
27940;DHT22;15275;51.716;14.324;2023-03-30T06:06:31;12.40;79.70
27940;DHT22;15275;51.716;14.324;2023-03-30T06:08:56;12.40;79.30
27940;DHT22;15275;51.716;14.324;2023-03-30T06:11:22;12.50;79.30
27940;DHT22;15275;51.716;14.324;2023-03-30T06:13:48;12.60;79.10
27940;DHT22;15275;51.716;14.324;2023-03-30T06:16:14;12.60;79.00
27940;DHT22;15275;51.716;14.324;2023-03-30T06:18:40;12.70;78.90
27940;DHT22;15275;51.716;14.324;2023-03-30T06:21:06;12.70;79.10
27940;DHT22;15275;51.716;14.324;2023-03-30T06:23:35;12.80;79.10
27940;DHT22;15275;51.716;14.324;2023-03-30T06:26:03;12.80;79.10
27940;DHT22;15275;51.716;14.324;2023-03-30T06:28:29;12.90;79.10
27940;DHT22;15275;51.716;14.324;2023-03-30T06:30:56;13.00;79.00
27940;DHT22;15275;51.716;14.324;2023-03-30T06:33:22;13.00;78.90
27940;DHT22;15275;51.716;14.324;2023-03-30T06:35:51;13.10;78.70
27940;DHT22;15275;51.716;14.324;2023-03-30T06:38:20;13.20;78.80
27940;DHT22;15275;51.716;14.324;2023-03-30T06:40:47;13.30;78.80
27940;DHT22;15275;51.716;14.324;2023-03-30T06:43:18;13.40;78.90
27940;DHT22;15275;51.716;14.324;2023-03-30T06:45:50;13.40;78.60
27940;DHT22;15275;51.716;14.324;2023-03-30T06:48:17;13.50;78.60
27940;DHT22;15275;51.716;14.324;2023-03-30T06:50:47;13.60;78.60
27940;DHT22;15275;51.716;14.324;2023-03-30T06:53:14;13.70;78.30
27940;DHT22;15275;51.716;14.324;2023-03-30T06:55:40;13.80;78.30
27940;DHT22;15275;51.716;14.324;2023-03-30T06:58:07;13.80;78.10
27940;DHT22;15275;51.716;14.324;2023-03-30T07:00:33;13.90;78.00
27940;DHT22;15275;51.716;14.324;2023-03-30T07:02:59;14.00;78.00
27940;DHT22;15275;51.716;14.324;2023-03-30T07:05:25;14.00;77.60
27940;DHT22;15275;51.716;14.324;2023-03-30T07:07:54;14.10;77.30
27940;DHT22;15275;51.716;14.324;2023-03-30T07:10:21;14.10;77.30
27940;DHT22;15275;51.716;14.324;2023-03-30T07:12:47;14.10;77.20
27940;DHT22;15275;51.716;14.324;2023-03-30T07:15:14;14.20;77.20
27940;DHT22;15275;51.716;14.324;2023-03-30T07:17:40;14.20;77.20
27940;DHT22;15275;51.716;14.324;2023-03-30T07:20:07;14.20;77.30
27940;DHT22;15275;51.716;14.324;2023-03-30T07:22:35;14.30;77.20
27940;DHT22;15275;51.716;14.324;2023-03-30T07:25:02;14.30;77.10
27940;DHT22;15275;51.716;14.324;2023-03-30T07:27:28;14.40;76.90
27940;DHT22;15275;51.716;14.324;2023-03-30T07:29:54;14.40;76.70
27940;DHT22;15275;51.716;14.324;2023-03-30T07:32:20;14.50;76.50
27940;DHT22;15275;51.716;14.324;2023-03-30T07:34:46;14.50;76.50
27940;DHT22;15275;51.716;14.324;2023-03-30T07:37:12;14.50;76.50
27940;DHT22;15275;51.716;14.324;2023-03-30T07:39:39;14.50;76.40
27940;DHT22;15275;51.716;14.324;2023-03-30T07:42:06;14.60;76.50
27940;DHT22;15275;51.716;14.324;2023-03-30T07:44:31;14.60;76.50
27940;DHT22;15275;51.716;14.324;2023-03-30T07:46:57;14.60;76.50
27940;DHT22;15275;51.716;14.324;2023-03-30T07:49:23;14.60;76.60
27940;DHT22;15275;51.716;14.324;2023-03-30T07:51:49;14.70;76.70
27940;DHT22;15275;51.716;14.324;2023-03-30T07:54:16;14.70;76.70
27940;DHT22;15275;51.716;14.324;2023-03-30T07:56:42;14.80;76.90
27940;DHT22;15275;51.716;14.324;2023-03-30T07:59:09;14.90;77.00
27940;DHT22;15275;51.716;14.324;2023-03-30T08:01:37;15.00;77.20
27940;DHT22;15275;51.716;14.324;2023-03-30T08:04:03;15.20;77.30
27940;DHT22;15275;51.716;14.324;2023-03-30T08:06:29;15.30;77.30
27940;DHT22;15275;51.716;14.324;2023-03-30T08:08:55;15.50;77.10
27940;DHT22;15275;51.716;14.324;2023-03-30T08:11:21;15.60;76.90
27940;DHT22;15275;51.716;14.324;2023-03-30T08:13:47;15.70;76.70
27940;DHT22;15275;51.716;14.324;2023-03-30T08:16:13;15.90;76.80
27940;DHT22;15275;51.716;14.324;2023-03-30T08:18:39;16.00;77.00
27940;DHT22;15275;51.716;14.324;2023-03-30T08:21:08;16.20;76.80
27940;DHT22;15275;51.716;14.324;2023-03-30T08:23:35;16.40;76.80
27940;DHT22;15275;51.716;14.324;2023-03-30T08:26:01;16.50;76.00
27940;DHT22;15275;51.716;14.324;2023-03-30T08:28:27;16.70;75.80
27940;DHT22;15275;51.716;14.324;2023-03-30T08:30:53;16.80;75.50
27940;DHT22;15275;51.716;14.324;2023-03-30T08:33:20;17.00;75.30
27940;DHT22;15275;51.716;14.324;2023-03-30T08:35:47;17.10;75.10
27940;DHT22;15275;51.716;14.324;2023-03-30T08:38:14;17.20;74.70
27940;DHT22;15275;51.716;14.324;2023-03-30T08:40:48;17.40;74.70
27940;DHT22;15275;51.716;14.324;2023-03-30T08:43:39;17.50;74.50
27940;DHT22;15275;51.716;14.324;2023-03-30T08:46:16;17.70;73.60
27940;DHT22;15275;51.716;14.324;2023-03-30T08:48:43;17.90;74.40
27940;DHT22;15275;51.716;14.324;2023-03-30T08:51:27;18.10;74.80
27940;DHT22;15275;51.716;14.324;2023-03-30T08:54:00;18.30;72.70
27940;DHT22;15275;51.716;14.324;2023-03-30T08:56:34;18.40;73.80
27940;DHT22;15275;51.716;14.324;2023-03-30T09:01:46;18.80;73.60
27940;DHT22;15275;51.716;14.324;2023-03-30T09:10:17;19.10;69.20
27940;DHT22;15275;51.716;14.324;2023-03-30T09:12:51;19.10;71.80
27940;DHT22;15275;51.716;14.324;2023-03-30T09:20:45;19.20;71.20
27940;DHT22;15275;51.716;14.324;2023-03-30T09:23:14;19.20;71.20
27940;DHT22;15275;51.716;14.324;2023-03-30T09:31:19;19.20;70.80
27940;DHT22;15275;51.716;14.324;2023-03-30T09:34:04;19.20;69.90
27940;DHT22;15275;51.716;14.324;2023-03-30T09:39:29;19.10;70.60
27940;DHT22;15275;51.716;14.324;2023-03-30T09:47:38;18.90;71.80
27940;DHT22;15275;51.716;14.324;2023-03-30T09:50:15;18.80;72.30
27940;DHT22;15275;51.716;14.324;2023-03-30T09:53:01;18.80;72.30
27940;DHT22;15275;51.716;14.324;2023-03-30T09:55:30;18.80;71.10
27940;DHT22;15275;51.716;14.324;2023-03-30T09:58:26;18.80;72.50
27940;DHT22;15275;51.716;14.324;2023-03-30T10:01:12;18.90;70.00
27940;DHT22;15275;51.716;14.324;2023-03-30T10:03:41;19.00;71.70
27940;DHT22;15275;51.716;14.324;2023-03-30T10:09:01;19.10;72.60
27940;DHT22;15275;51.716;14.324;2023-03-30T10:11:36;19.20;70.40
27940;DHT22;15275;51.716;14.324;2023-03-30T10:14:04;19.30;72.90
27940;DHT22;15275;51.716;14.324;2023-03-30T10:16:32;19.40;72.70
27940;DHT22;15275;51.716;14.324;2023-03-30T10:19:00;19.50;72.50
27940;DHT22;15275;51.716;14.324;2023-03-30T10:21:36;19.50;71.90
27940;DHT22;15275;51.716;14.324;2023-03-30T10:24:09;19.60;71.20
27940;DHT22;15275;51.716;14.324;2023-03-30T10:26:50;19.70;71.90
27940;DHT22;15275;51.716;14.324;2023-03-30T10:29:21;19.70;71.70
27940;DHT22;15275;51.716;14.324;2023-03-30T10:31:56;19.70;71.40
27940;DHT22;15275;51.716;14.324;2023-03-30T10:34:43;19.80;71.60
27940;DHT22;15275;51.716;14.324;2023-03-30T10:37:26;19.80;71.70
27940;DHT22;15275;51.716;14.324;2023-03-30T10:39:54;19.80;70.50
27940;DHT22;15275;51.716;14.324;2023-03-30T10:42:24;19.80;71.30
27940;DHT22;15275;51.716;14.324;2023-03-30T10:44:54;19.80;70.80
27940;DHT22;15275;51.716;14.324;2023-03-30T11:05:18;19.80;67.00
27940;DHT22;15275;51.716;14.324;2023-03-30T11:08:04;19.80;69.20
27940;DHT22;15275;51.716;14.324;2023-03-30T11:10:39;19.70;68.70
27940;DHT22;15275;51.716;14.324;2023-03-30T11:16:15;19.70;68.50
27940;DHT22;15275;51.716;14.324;2023-03-30T11:19:09;19.70;68.30
27940;DHT22;15275;51.716;14.324;2023-03-30T11:24:53;19.70;68.50
27940;DHT22;15275;51.716;14.324;2023-03-30T11:27:54;19.60;70.00
27940;DHT22;15275;51.716;14.324;2023-03-30T11:30:31;19.70;67.70
27940;DHT22;15275;51.716;14.324;2023-03-30T11:33:18;19.70;70.30
27940;DHT22;15275;51.716;14.324;2023-03-30T11:35:52;19.70;69.50
27940;DHT22;15275;51.716;14.324;2023-03-30T11:38:41;19.70;70.40
27940;DHT22;15275;51.716;14.324;2023-03-30T11:41:17;19.70;69.70
27940;DHT22;15275;51.716;14.324;2023-03-30T11:43:48;19.70;66.20
27940;DHT22;15275;51.716;14.324;2023-03-30T11:46:33;19.60;70.20
27940;DHT22;15275;51.716;14.324;2023-03-30T11:52:34;19.60;70.50
27940;DHT22;15275;51.716;14.324;2023-03-30T12:00:51;19.70;70.20
27940;DHT22;15275;51.716;14.324;2023-03-30T12:03:37;19.70;71.00
27940;DHT22;15275;51.716;14.324;2023-03-30T12:09:13;19.80;71.00
27940;DHT22;15275;51.716;14.324;2023-03-30T12:17:53;19.60;71.00
27940;DHT22;15275;51.716;14.324;2023-03-30T12:20:40;19.50;71.10
27940;DHT22;15275;51.716;14.324;2023-03-30T12:31:19;19.00;74.20
27940;DHT22;15275;51.716;14.324;2023-03-30T12:33:50;19.00;74.80
27940;DHT22;15275;51.716;14.324;2023-03-30T12:36:37;19.10;74.80
27940;DHT22;15275;51.716;14.324;2023-03-30T12:39:26;19.10;73.30
27940;DHT22;15275;51.716;14.324;2023-03-30T12:42:20;19.20;73.00
27940;DHT22;15275;51.716;14.324;2023-03-30T13:03:03;20.00;74.20
27940;DHT22;15275;51.716;14.324;2023-03-30T13:05:40;20.10;71.20
27940;DHT22;15275;51.716;14.324;2023-03-30T13:08:19;20.20;72.80
27940;DHT22;15275;51.716;14.324;2023-03-30T13:10:48;20.20;70.60
27940;DHT22;15275;51.716;14.324;2023-03-30T13:13:22;20.30;71.20
27940;DHT22;15275;51.716;14.324;2023-03-30T13:40:22;20.90;69.80
27940;DHT22;15275;51.716;14.324;2023-03-30T13:51:38;20.80;64.70
27940;DHT22;15275;51.716;14.324;2023-03-30T13:54:26;20.70;69.20
27940;DHT22;15275;51.716;14.324;2023-03-30T13:57:05;20.70;69.50
27940;DHT22;15275;51.716;14.324;2023-03-30T13:59:35;20.70;69.20
27940;DHT22;15275;51.716;14.324;2023-03-30T14:02:04;20.70;70.20
27940;DHT22;15275;51.716;14.324;2023-03-30T14:04:33;20.70;69.80
27940;DHT22;15275;51.716;14.324;2023-03-30T14:07:20;20.70;69.70
27940;DHT22;15275;51.716;14.324;2023-03-30T14:10:06;20.70;67.50
27940;DHT22;15275;51.716;14.324;2023-03-30T14:12:49;20.80;68.00
27940;DHT22;15275;51.716;14.324;2023-03-30T14:15:41;20.80;69.90
27940;DHT22;15275;51.716;14.324;2023-03-30T14:18:11;20.80;70.10
27940;DHT22;15275;51.716;14.324;2023-03-30T14:21:13;20.80;70.00
27940;DHT22;15275;51.716;14.324;2023-03-30T14:23:46;20.90;65.50
27940;DHT22;15275;51.716;14.324;2023-03-30T14:26:17;20.90;69.40
27940;DHT22;15275;51.716;14.324;2023-03-30T14:29:08;20.90;69.20
27940;DHT22;15275;51.716;14.324;2023-03-30T14:31:41;21.00;67.90
27940;DHT22;15275;51.716;14.324;2023-03-30T14:34:27;21.00;70.00
27940;DHT22;15275;51.716;14.324;2023-03-30T14:37:06;21.10;66.80
27940;DHT22;15275;51.716;14.324;2023-03-30T14:39:38;21.10;68.50
27940;DHT22;15275;51.716;14.324;2023-03-30T14:42:26;21.20;68.80
27940;DHT22;15275;51.716;14.324;2023-03-30T14:44:55;21.20;66.40
27940;DHT22;15275;51.716;14.324;2023-03-30T14:47:26;21.30;68.60
27940;DHT22;15275;51.716;14.324;2023-03-30T14:49:56;21.30;68.30
27940;DHT22;15275;51.716;14.324;2023-03-30T14:52:31;21.30;67.80
27940;DHT22;15275;51.716;14.324;2023-03-30T14:54:58;21.30;68.30
27940;DHT22;15275;51.716;14.324;2023-03-30T14:57:25;21.30;66.90
27940;DHT22;15275;51.716;14.324;2023-03-30T15:00:02;21.30;68.80
27940;DHT22;15275;51.716;14.324;2023-03-30T15:02:42;21.30;67.70
27940;DHT22;15275;51.716;14.324;2023-03-30T15:05:08;21.40;68.70
27940;DHT22;15275;51.716;14.324;2023-03-30T15:07:35;21.40;68.60
27940;DHT22;15275;51.716;14.324;2023-03-30T15:10:01;21.40;66.10
27940;DHT22;15275;51.716;14.324;2023-03-30T15:12:35;21.40;68.20
27940;DHT22;15275;51.716;14.324;2023-03-30T15:15:06;21.40;66.90
27940;DHT22;15275;51.716;14.324;2023-03-30T15:17:33;21.40;68.60
27940;DHT22;15275;51.716;14.324;2023-03-30T15:20:02;21.40;68.20
27940;DHT22;15275;51.716;14.324;2023-03-30T15:22:35;21.40;68.10
27940;DHT22;15275;51.716;14.324;2023-03-30T15:25:27;21.40;67.90
27940;DHT22;15275;51.716;14.324;2023-03-30T15:28:05;21.40;66.10
27940;DHT22;15275;51.716;14.324;2023-03-30T15:30:38;21.40;67.20
27940;DHT22;15275;51.716;14.324;2023-03-30T15:33:24;21.40;67.50
27940;DHT22;15275;51.716;14.324;2023-03-30T15:36:04;21.40;66.30
27940;DHT22;15275;51.716;14.324;2023-03-30T15:38:54;21.30;67.20
27940;DHT22;15275;51.716;14.324;2023-03-30T15:44:19;21.20;66.90
27940;DHT22;15275;51.716;14.324;2023-03-30T15:46:50;21.10;67.80
27940;DHT22;15275;51.716;14.324;2023-03-30T15:49:21;21.00;67.30
27940;DHT22;15275;51.716;14.324;2023-03-30T15:51:51;20.90;67.20
27940;DHT22;15275;51.716;14.324;2023-03-30T15:54:35;20.70;65.30
27940;DHT22;15275;51.716;14.324;2023-03-30T15:57:27;20.60;64.00
27940;DHT22;15275;51.716;14.324;2023-03-30T15:59:58;20.20;61.80
27940;DHT22;15275;51.716;14.324;2023-03-30T16:02:38;19.90;64.40
27940;DHT22;15275;51.716;14.324;2023-03-30T16:05:13;19.50;64.90
27940;DHT22;15275;51.716;14.324;2023-03-30T16:07:41;19.20;65.90
27940;DHT22;15275;51.716;14.324;2023-03-30T16:10:18;18.90;66.40
27940;DHT22;15275;51.716;14.324;2023-03-30T16:12:47;18.70;66.70
27940;DHT22;15275;51.716;14.324;2023-03-30T16:15:24;18.50;68.00
27940;DHT22;15275;51.716;14.324;2023-03-30T16:17:51;18.30;67.90
27940;DHT22;15275;51.716;14.324;2023-03-30T16:22:49;18.00;69.00
27940;DHT22;15275;51.716;14.324;2023-03-30T16:25:17;17.80;68.90
27940;DHT22;15275;51.716;14.324;2023-03-30T16:27:45;17.70;69.00
27940;DHT22;15275;51.716;14.324;2023-03-30T16:30:18;17.50;68.70
27940;DHT22;15275;51.716;14.324;2023-03-30T16:32:46;17.50;69.20
27940;DHT22;15275;51.716;14.324;2023-03-30T16:35:12;17.40;69.70
27940;DHT22;15275;51.716;14.324;2023-03-30T16:37:38;17.30;69.80
27940;DHT22;15275;51.716;14.324;2023-03-30T16:40:27;17.20;70.00
27940;DHT22;15275;51.716;14.324;2023-03-30T16:42:57;17.20;69.30
27940;DHT22;15275;51.716;14.324;2023-03-30T16:45:24;17.10;70.40
27940;DHT22;15275;51.716;14.324;2023-03-30T16:47:50;17.10;70.60
27940;DHT22;15275;51.716;14.324;2023-03-30T16:53:04;16.90;69.80
27940;DHT22;15275;51.716;14.324;2023-03-30T16:55:31;16.90;71.20
27940;DHT22;15275;51.716;14.324;2023-03-30T16:57:58;16.80;71.30
27940;DHT22;15275;51.716;14.324;2023-03-30T17:00:29;16.70;71.40
27940;DHT22;15275;51.716;14.324;2023-03-30T17:02:56;16.70;71.70
27940;DHT22;15275;51.716;14.324;2023-03-30T17:05:23;16.60;72.00
27940;DHT22;15275;51.716;14.324;2023-03-30T17:07:52;16.50;72.10
27940;DHT22;15275;51.716;14.324;2023-03-30T17:10:26;16.50;72.10
27940;DHT22;15275;51.716;14.324;2023-03-30T17:12:55;16.40;72.20
27940;DHT22;15275;51.716;14.324;2023-03-30T17:15:22;16.40;72.20
27940;DHT22;15275;51.716;14.324;2023-03-30T17:17:49;16.30;72.40
27940;DHT22;15275;51.716;14.324;2023-03-30T17:20:22;16.30;72.60
27940;DHT22;15275;51.716;14.324;2023-03-30T17:22:49;16.20;72.70
27940;DHT22;15275;51.716;14.324;2023-03-30T17:25:16;16.20;72.80
27940;DHT22;15275;51.716;14.324;2023-03-30T17:27:49;16.10;72.80
27940;DHT22;15275;51.716;14.324;2023-03-30T17:30:23;16.00;72.90
27940;DHT22;15275;51.716;14.324;2023-03-30T17:32:51;16.00;72.80
27940;DHT22;15275;51.716;14.324;2023-03-30T17:35:20;15.90;72.80
27940;DHT22;15275;51.716;14.324;2023-03-30T17:37:47;15.80;73.00
27940;DHT22;15275;51.716;14.324;2023-03-30T17:40:27;15.70;73.20
27940;DHT22;15275;51.716;14.324;2023-03-30T17:42:55;15.70;72.90
27940;DHT22;15275;51.716;14.324;2023-03-30T17:45:24;15.60;73.80
27940;DHT22;15275;51.716;14.324;2023-03-30T17:47:51;15.50;74.00
27940;DHT22;15275;51.716;14.324;2023-03-30T17:50:23;15.40;74.20
27940;DHT22;15275;51.716;14.324;2023-03-30T17:52:52;15.40;74.50
27940;DHT22;15275;51.716;14.324;2023-03-30T17:55:21;15.30;74.70
27940;DHT22;15275;51.716;14.324;2023-03-30T17:57:48;15.30;75.10
27940;DHT22;15275;51.716;14.324;2023-03-30T18:03:11;15.20;75.40
27940;DHT22;15275;51.716;14.324;2023-03-30T18:05:37;15.20;75.40
27940;DHT22;15275;51.716;14.324;2023-03-30T18:08:03;15.20;75.50
27940;DHT22;15275;51.716;14.324;2023-03-30T18:10:36;15.20;75.70
27940;DHT22;15275;51.716;14.324;2023-03-30T18:13:04;15.20;75.70
27940;DHT22;15275;51.716;14.324;2023-03-30T18:15:31;15.10;75.90
27940;DHT22;15275;51.716;14.324;2023-03-30T18:17:59;15.10;76.10
27940;DHT22;15275;51.716;14.324;2023-03-30T18:20:37;15.10;76.10
27940;DHT22;15275;51.716;14.324;2023-03-30T18:23:05;15.10;76.10
27940;DHT22;15275;51.716;14.324;2023-03-30T18:25:31;15.10;76.20
27940;DHT22;15275;51.716;14.324;2023-03-30T18:27:58;15.00;76.20
27940;DHT22;15275;51.716;14.324;2023-03-30T18:33:01;14.90;76.20
27940;DHT22;15275;51.716;14.324;2023-03-30T18:35:28;14.90;76.30
27940;DHT22;15275;51.716;14.324;2023-03-30T18:37:55;14.90;76.30
27940;DHT22;15275;51.716;14.324;2023-03-30T18:40:31;14.80;76.40
27940;DHT22;15275;51.716;14.324;2023-03-30T18:43:05;14.80;76.40
27940;DHT22;15275;51.716;14.324;2023-03-30T18:45:33;14.70;76.50
27940;DHT22;15275;51.716;14.324;2023-03-30T18:48:02;14.70;76.90
27940;DHT22;15275;51.716;14.324;2023-03-30T18:50:33;14.60;77.00
27940;DHT22;15275;51.716;14.324;2023-03-30T18:53:02;14.60;77.10
27940;DHT22;15275;51.716;14.324;2023-03-30T18:55:31;14.60;77.10